sensor_id;sensor_type;location;lat;lon;timestamp;pressure;altitude;pressure_sealevel;temperature;humidity
46583;BME280;32309;48.858;8.252;2023-05-14T07:48:27;100248.66;;;14.62;69.28
46583;BME280;32309;48.858;8.252;2023-05-14T07:52:49;100244.03;;;14.66;70.23
46583;BME280;32309;48.858;8.252;2023-05-14T07:54:50;100245.75;;;14.78;68.85
46583;BME280;32309;48.858;8.252;2023-05-14T07:56:51;100247.16;;;14.83;67.91
46583;BME280;32309;48.858;8.252;2023-05-14T07:58:51;100239.09;;;14.74;68.80
46583;BME280;32309;48.858;8.252;2023-05-14T08:00:51;100244.56;;;14.83;68.41
46583;BME280;32309;48.858;8.252;2023-05-14T08:02:52;100248.34;;;14.90;68.30
46583;BME280;32309;48.858;8.252;2023-05-14T08:04:52;100243.38;;;14.87;68.48
46583;BME280;32309;48.858;8.252;2023-05-14T08:06:52;100244.81;;;14.91;68.59
46583;BME280;32309;48.858;8.252;2023-05-14T08:08:57;100236.16;;;15.02;68.48
46583;BME280;32309;48.858;8.252;2023-05-14T08:10:59;100239.72;;;15.23;65.12
46583;BME280;32309;48.858;8.252;2023-05-14T08:13:00;100233.91;;;15.20;65.36
46583;BME280;32309;48.858;8.252;2023-05-14T08:15:00;100234.25;;;15.26;65.94
46583;BME280;32309;48.858;8.252;2023-05-14T08:17:01;100233.44;;;15.26;66.74
46583;BME280;32309;48.858;8.252;2023-05-14T08:19:18;100230.91;;;15.36;67.57
46583;BME280;32309;48.858;8.252;2023-05-14T08:21:23;100224.75;;;15.37;66.60
46583;BME280;32309;48.858;8.252;2023-05-14T08:23:24;100225.47;;;15.39;65.17
46583;BME280;32309;48.858;8.252;2023-05-14T08:26:06;100219.41;;;15.50;65.08
46583;BME280;32309;48.858;8.252;2023-05-14T08:28:18;100220.22;;;15.61;65.08
46583;BME280;32309;48.858;8.252;2023-05-14T08:30:43;100220.16;;;15.73;64.39
46583;BME280;32309;48.858;8.252;2023-05-14T08:32:57;100215.28;;;15.79;62.98
46583;BME280;32309;48.858;8.252;2023-05-14T08:35:21;100208.50;;;15.77;63.44
46583;BME280;32309;48.858;8.252;2023-05-14T08:38:29;100212.81;;;15.89;62.85
46583;BME280;32309;48.858;8.252;2023-05-14T08:40:45;100207.06;;;15.95;61.96
46583;BME280;32309;48.858;8.252;2023-05-14T08:46:16;100208.56;;;16.09;63.36
46583;BME280;32309;48.858;8.252;2023-05-14T08:48:21;100211.56;;;16.05;62.57
46583;BME280;32309;48.858;8.252;2023-05-14T08:50:25;100209.03;;;16.03;62.58
46583;BME280;32309;48.858;8.252;2023-05-14T09:14:05;100188.53;;;16.62;59.92
46583;BME280;32309;48.858;8.252;2023-05-14T09:16:08;100180.56;;;16.63;60.53
46583;BME280;32309;48.858;8.252;2023-05-14T09:18:08;100182.81;;;16.78;58.21
46583;BME280;32309;48.858;8.252;2023-05-14T09:27:53;100174.44;;;17.05;57.42
46583;BME280;32309;48.858;8.252;2023-05-14T09:29:54;100172.06;;;17.02;58.02
46583;BME280;32309;48.858;8.252;2023-05-14T09:32:03;100171.63;;;16.97;59.07
46583;BME280;32309;48.858;8.252;2023-05-14T09:34:06;100165.31;;;17.00;58.92
46583;BME280;32309;48.858;8.252;2023-05-14T09:36:06;100162.00;;;16.98;59.44
46583;BME280;32309;48.858;8.252;2023-05-14T09:38:06;100161.88;;;16.99;59.53
46583;BME280;32309;48.858;8.252;2023-05-14T09:52:07;100164.41;;;17.20;58.35
46583;BME280;32309;48.858;8.252;2023-05-14T09:54:07;100160.56;;;17.24;58.34
46583;BME280;32309;48.858;8.252;2023-05-14T09:56:10;100159.06;;;17.32;58.99
46583;BME280;32309;48.858;8.252;2023-05-14T09:58:13;100162.50;;;17.32;58.54
46583;BME280;32309;48.858;8.252;2023-05-14T10:00:14;100158.78;;;17.35;58.52
46583;BME280;32309;48.858;8.252;2023-05-14T10:02:15;100160.47;;;17.45;56.10
46583;BME280;32309;48.858;8.252;2023-05-14T10:04:23;100152.31;;;17.29;56.78
46583;BME280;32309;48.858;8.252;2023-05-14T10:06:24;100155.75;;;17.29;55.34
46583;BME280;32309;48.858;8.252;2023-05-14T10:08:26;100151.31;;;17.30;55.29
46583;BME280;32309;48.858;8.252;2023-05-14T10:10:32;100147.91;;;17.39;56.58
46583;BME280;32309;48.858;8.252;2023-05-14T10:12:35;100153.88;;;17.61;54.67
46583;BME280;32309;48.858;8.252;2023-05-14T10:14:39;100153.00;;;17.60;55.80
46583;BME280;32309;48.858;8.252;2023-05-14T10:16:42;100146.81;;;17.61;55.56
46583;BME280;32309;48.858;8.252;2023-05-14T10:18:55;100146.28;;;17.68;55.26
46583;BME280;32309;48.858;8.252;2023-05-14T10:21:04;100154.16;;;17.87;53.49
46583;BME280;32309;48.858;8.252;2023-05-14T10:23:05;100150.16;;;17.83;53.58
46583;BME280;32309;48.858;8.252;2023-05-14T10:25:08;100146.16;;;17.99;52.19
46583;BME280;32309;48.858;8.252;2023-05-14T10:27:10;100152.38;;;17.98;52.46
46583;BME280;32309;48.858;8.252;2023-05-14T10:29:30;100153.50;;;17.95;53.00
46583;BME280;32309;48.858;8.252;2023-05-14T10:31:48;100147.81;;;18.00;52.60
46583;BME280;32309;48.858;8.252;2023-05-14T10:33:49;100139.28;;;17.98;52.72
46583;BME280;32309;48.858;8.252;2023-05-14T10:35:51;100139.38;;;18.16;53.86
46583;BME280;32309;48.858;8.252;2023-05-14T10:37:54;100143.47;;;18.38;53.37
46583;BME280;32309;48.858;8.252;2023-05-14T10:41:56;100133.97;;;18.27;52.75
46583;BME280;32309;48.858;8.252;2023-05-14T10:43:56;100139.50;;;18.14;53.78
46583;BME280;32309;48.858;8.252;2023-05-14T10:45:57;100130.97;;;18.12;53.09
46583;BME280;32309;48.858;8.252;2023-05-14T10:48:01;100126.28;;;18.06;53.63
46583;BME280;32309;48.858;8.252;2023-05-14T10:50:04;100122.25;;;18.11;54.42
46583;BME280;32309;48.858;8.252;2023-05-14T10:52:07;100119.19;;;18.26;52.85
46583;BME280;32309;48.858;8.252;2023-05-14T10:57:22;100115.50;;;18.19;54.18
46583;BME280;32309;48.858;8.252;2023-05-14T10:59:43;100113.94;;;18.36;53.05
46583;BME280;32309;48.858;8.252;2023-05-14T11:01:44;100109.25;;;18.29;53.22
46583;BME280;32309;48.858;8.252;2023-05-14T11:04:00;100114.47;;;18.39;53.70
46583;BME280;32309;48.858;8.252;2023-05-14T11:06:11;100109.75;;;18.43;51.79
46583;BME280;32309;48.858;8.252;2023-05-14T11:17:58;100102.69;;;18.53;52.47
46583;BME280;32309;48.858;8.252;2023-05-14T11:20:14;100096.03;;;18.59;52.96
46583;BME280;32309;48.858;8.252;2023-05-14T12:03:08;100072.25;;;18.60;51.09
46583;BME280;32309;48.858;8.252;2023-05-14T12:05:11;100077.50;;;18.60;51.45
46583;BME280;32309;48.858;8.252;2023-05-14T12:07:13;100077.94;;;18.56;51.70
46583;BME280;32309;48.858;8.252;2023-05-14T12:09:15;100077.41;;;18.52;52.15
46583;BME280;32309;48.858;8.252;2023-05-14T12:11:19;100066.91;;;18.52;51.83
46583;BME280;32309;48.858;8.252;2023-05-14T12:13:26;100068.84;;;18.50;52.11
46583;BME280;32309;48.858;8.252;2023-05-14T12:15:27;100066.97;;;18.42;51.74
46583;BME280;32309;48.858;8.252;2023-05-14T12:17:28;100063.66;;;18.40;51.84
46583;BME280;32309;48.858;8.252;2023-05-14T12:19:28;100061.31;;;18.37;51.85
46583;BME280;32309;48.858;8.252;2023-05-14T12:21:29;100059.50;;;18.38;51.60
46583;BME280;32309;48.858;8.252;2023-05-14T12:23:31;100066.97;;;18.42;50.77
46583;BME280;32309;48.858;8.252;2023-05-14T12:26:07;100064.47;;;18.41;50.29
46583;BME280;32309;48.858;8.252;2023-05-14T12:28:14;100047.75;;;18.42;50.55
46583;BME280;32309;48.858;8.252;2023-05-14T12:30:15;100058.50;;;18.49;50.85
46583;BME280;32309;48.858;8.252;2023-05-14T12:32:15;100050.75;;;18.57;50.98
46583;BME280;32309;48.858;8.252;2023-05-14T12:34:16;100049.75;;;18.58;50.05
46583;BME280;32309;48.858;8.252;2023-05-14T12:36:17;100045.34;;;18.58;49.82
46583;BME280;32309;48.858;8.252;2023-05-14T12:38:17;100042.97;;;18.65;49.61
46583;BME280;32309;48.858;8.252;2023-05-14T12:40:17;100045.50;;;18.75;49.68
46583;BME280;32309;48.858;8.252;2023-05-14T12:42:18;100044.41;;;18.77;49.42
46583;BME280;32309;48.858;8.252;2023-05-14T12:44:18;100038.56;;;18.84;50.17
46583;BME280;32309;48.858;8.252;2023-05-14T12:46:21;100037.03;;;18.91;49.52
46583;BME280;32309;48.858;8.252;2023-05-14T12:48:22;100037.41;;;18.96;50.05
46583;BME280;32309;48.858;8.252;2023-05-14T12:50:22;100033.50;;;19.00;50.31
46583;BME280;32309;48.858;8.252;2023-05-14T12:52:23;100034.50;;;19.17;49.87
46583;BME280;32309;48.858;8.252;2023-05-14T12:54:23;100028.50;;;19.25;49.80
46583;BME280;32309;48.858;8.252;2023-05-14T12:56:24;100023.16;;;19.35;48.81
46583;BME280;32309;48.858;8.252;2023-05-14T12:58:27;100023.75;;;19.28;49.45
46583;BME280;32309;48.858;8.252;2023-05-14T13:00:27;100023.81;;;19.19;49.18
46583;BME280;32309;48.858;8.252;2023-05-14T13:02:28;100034.94;;;19.12;50.98
46583;BME280;32309;48.858;8.252;2023-05-14T13:04:28;100025.31;;;19.21;50.18
46583;BME280;32309;48.858;8.252;2023-05-14T13:06:28;100012.19;;;19.21;49.42
46583;BME280;32309;48.858;8.252;2023-05-14T13:08:30;100012.88;;;19.23;50.30
46583;BME280;32309;48.858;8.252;2023-05-14T13:10:31;100026.94;;;19.32;49.23
46583;BME280;32309;48.858;8.252;2023-05-14T13:12:31;100008.81;;;19.29;49.51
46583;BME280;32309;48.858;8.252;2023-05-14T13:14:31;100011.16;;;19.32;49.02
46583;BME280;32309;48.858;8.252;2023-05-14T13:16:35;100011.00;;;19.34;49.83
46583;BME280;32309;48.858;8.252;2023-05-14T13:18:38;100014.13;;;19.37;49.27
46583;BME280;32309;48.858;8.252;2023-05-14T13:20:38;100009.03;;;19.36;48.78
46583;BME280;32309;48.858;8.252;2023-05-14T13:22:39;100011.06;;;19.42;49.42
46583;BME280;32309;48.858;8.252;2023-05-14T13:24:40;100003.13;;;19.34;49.64
46583;BME280;32309;48.858;8.252;2023-05-14T13:26:40;100005.84;;;19.50;49.28
46583;BME280;32309;48.858;8.252;2023-05-14T13:28:40;99998.66;;;19.52;48.58
46583;BME280;32309;48.858;8.252;2023-05-14T13:30:41;100010.16;;;19.51;49.53
46583;BME280;32309;48.858;8.252;2023-05-14T13:33:01;100006.03;;;19.49;49.06
46583;BME280;32309;48.858;8.252;2023-05-14T13:35:02;99998.88;;;19.41;48.89
46583;BME280;32309;48.858;8.252;2023-05-14T13:37:02;99990.63;;;19.36;49.32
46583;BME280;32309;48.858;8.252;2023-05-14T13:39:02;99993.38;;;19.26;50.47
46583;BME280;32309;48.858;8.252;2023-05-14T13:41:03;99988.41;;;19.23;50.51
46583;BME280;32309;48.858;8.252;2023-05-14T13:43:03;99991.00;;;19.41;49.58
46583;BME280;32309;48.858;8.252;2023-05-14T13:45:04;99980.13;;;19.36;49.49
46583;BME280;32309;48.858;8.252;2023-05-14T13:47:05;99982.91;;;19.34;50.64
46583;BME280;32309;48.858;8.252;2023-05-14T13:49:06;99984.84;;;19.50;49.61
46583;BME280;32309;48.858;8.252;2023-05-14T13:51:08;99985.53;;;19.52;49.16
46583;BME280;32309;48.858;8.252;2023-05-14T13:53:09;99986.44;;;19.43;48.67
46583;BME280;32309;48.858;8.252;2023-05-14T13:55:09;99972.56;;;19.33;49.15
46583;BME280;32309;48.858;8.252;2023-05-14T13:57:17;99977.13;;;19.31;50.01
46583;BME280;32309;48.858;8.252;2023-05-14T13:59:18;99972.66;;;19.23;50.16
46583;BME280;32309;48.858;8.252;2023-05-14T14:01:19;99969.88;;;19.24;50.89
46583;BME280;32309;48.858;8.252;2023-05-14T14:08:11;99960.38;;;19.32;49.62
46583;BME280;32309;48.858;8.252;2023-05-14T14:10:11;99955.56;;;19.45;50.37
46583;BME280;32309;48.858;8.252;2023-05-14T14:12:12;99952.47;;;19.50;49.10
46583;BME280;32309;48.858;8.252;2023-05-14T14:14:12;99944.59;;;19.50;49.48
46583;BME280;32309;48.858;8.252;2023-05-14T14:16:12;99943.31;;;19.54;50.21
46583;BME280;32309;48.858;8.252;2023-05-14T14:18:12;99942.34;;;19.55;49.12
46583;BME280;32309;48.858;8.252;2023-05-14T14:20:13;99936.22;;;19.54;49.96
46583;BME280;32309;48.858;8.252;2023-05-14T14:22:13;99933.97;;;19.59;50.14
46583;BME280;32309;48.858;8.252;2023-05-14T14:24:16;99935.66;;;19.69;50.23
46583;BME280;32309;48.858;8.252;2023-05-14T14:26:16;99942.47;;;19.79;48.50
46583;BME280;32309;48.858;8.252;2023-05-14T14:28:16;99929.44;;;19.70;47.76
46583;BME280;32309;48.858;8.252;2023-05-14T14:30:18;99934.16;;;19.66;47.79
46583;BME280;32309;48.858;8.252;2023-05-14T14:32:18;99927.31;;;19.73;47.22
46583;BME280;32309;48.858;8.252;2023-05-14T14:34:19;99938.97;;;19.71;47.86
46583;BME280;32309;48.858;8.252;2023-05-14T14:36:19;99926.78;;;19.70;47.97
46583;BME280;32309;48.858;8.252;2023-05-14T14:38:19;99931.91;;;19.71;48.74
46583;BME280;32309;48.858;8.252;2023-05-14T14:40:22;99933.75;;;19.79;48.60
46583;BME280;32309;48.858;8.252;2023-05-14T14:42:22;99927.38;;;19.82;48.57
46583;BME280;32309;48.858;8.252;2023-05-14T14:44:23;99920.94;;;19.76;48.59
46583;BME280;32309;48.858;8.252;2023-05-14T14:46:23;99924.88;;;19.80;49.01
46583;BME280;32309;48.858;8.252;2023-05-14T14:50:24;99931.97;;;19.79;48.50
46583;BME280;32309;48.858;8.252;2023-05-14T14:52:24;99925.31;;;19.67;48.49
46583;BME280;32309;48.858;8.252;2023-05-14T14:54:26;99923.59;;;19.58;49.32
46583;BME280;32309;48.858;8.252;2023-05-14T14:56:26;99919.81;;;19.52;49.18
46583;BME280;32309;48.858;8.252;2023-05-14T14:58:27;99919.66;;;19.54;49.61
46583;BME280;32309;48.858;8.252;2023-05-14T15:00:27;99920.53;;;19.62;49.29
46583;BME280;32309;48.858;8.252;2023-05-14T15:11:08;99918.88;;;19.61;49.34
46583;BME280;32309;48.858;8.252;2023-05-14T15:13:08;99916.59;;;19.67;49.60
46583;BME280;32309;48.858;8.252;2023-05-14T15:15:11;99920.72;;;19.69;48.84
46583;BME280;32309;48.858;8.252;2023-05-14T15:17:14;99917.94;;;19.71;48.45
46583;BME280;32309;48.858;8.252;2023-05-14T15:19:14;99919.28;;;19.75;48.03
46583;BME280;32309;48.858;8.252;2023-05-14T15:21:14;99917.94;;;19.71;47.60
46583;BME280;32309;48.858;8.252;2023-05-14T15:23:15;99911.34;;;19.67;47.46
46583;BME280;32309;48.858;8.252;2023-05-14T15:25:15;99918.75;;;19.71;47.86
46583;BME280;32309;48.858;8.252;2023-05-14T15:27:15;99915.88;;;19.83;48.14
46583;BME280;32309;48.858;8.252;2023-05-14T15:29:15;99917.38;;;19.85;48.49
46583;BME280;32309;48.858;8.252;2023-05-14T15:31:16;99919.16;;;19.85;48.43
46583;BME280;32309;48.858;8.252;2023-05-14T15:33:16;99915.72;;;19.84;47.49
46583;BME280;32309;48.858;8.252;2023-05-14T15:35:18;99909.09;;;19.80;47.49
46583;BME280;32309;48.858;8.252;2023-05-14T15:37:18;99915.81;;;19.74;48.07
46583;BME280;32309;48.858;8.252;2023-05-14T15:39:18;99916.63;;;19.75;48.16
46583;BME280;32309;48.858;8.252;2023-05-14T15:41:18;99910.06;;;19.71;47.80
46583;BME280;32309;48.858;8.252;2023-05-14T15:43:20;99907.69;;;19.59;47.74
46583;BME280;32309;48.858;8.252;2023-05-14T15:45:20;99914.03;;;19.49;47.83
46583;BME280;32309;48.858;8.252;2023-05-14T15:47:20;99914.59;;;19.34;48.68
46583;BME280;32309;48.858;8.252;2023-05-14T15:49:20;99913.09;;;19.32;48.80
46583;BME280;32309;48.858;8.252;2023-05-14T15:51:21;99900.94;;;19.31;48.88
46583;BME280;32309;48.858;8.252;2023-05-14T15:53:21;99907.22;;;19.38;49.32
46583;BME280;32309;48.858;8.252;2023-05-14T15:55:21;99898.41;;;19.47;49.31
46583;BME280;32309;48.858;8.252;2023-05-14T15:57:22;99912.13;;;19.59;49.59
46583;BME280;32309;48.858;8.252;2023-05-14T15:59:22;99896.91;;;19.71;48.26
46583;BME280;32309;48.858;8.252;2023-05-14T16:01:23;99907.63;;;19.77;48.72
46583;BME280;32309;48.858;8.252;2023-05-14T16:03:23;99908.75;;;19.75;47.72
46583;BME280;32309;48.858;8.252;2023-05-14T16:05:24;99902.59;;;19.58;48.41
46583;BME280;32309;48.858;8.252;2023-05-14T16:07:24;99894.97;;;19.47;49.70
46583;BME280;32309;48.858;8.252;2023-05-14T16:09:24;99897.25;;;19.41;49.63
46583;BME280;32309;48.858;8.252;2023-05-14T16:11:25;99899.66;;;19.35;48.79
46583;BME280;32309;48.858;8.252;2023-05-14T16:13:25;99905.47;;;19.20;49.40
46583;BME280;32309;48.858;8.252;2023-05-14T16:15:27;99901.97;;;19.11;49.81
46583;BME280;32309;48.858;8.252;2023-05-14T16:17:28;99909.31;;;19.08;49.73
46583;BME280;32309;48.858;8.252;2023-05-14T16:19:30;99909.63;;;19.05;49.37
46583;BME280;32309;48.858;8.252;2023-05-14T16:21:30;99906.25;;;18.94;49.77
46583;BME280;32309;48.858;8.252;2023-05-14T16:23:31;99908.06;;;18.94;49.23
46583;BME280;32309;48.858;8.252;2023-05-14T16:25:32;99902.13;;;18.92;49.29
46583;BME280;32309;48.858;8.252;2023-05-14T16:27:34;99905.72;;;18.91;49.49
46583;BME280;32309;48.858;8.252;2023-05-14T16:29:35;99902.94;;;18.92;49.00
46583;BME280;32309;48.858;8.252;2023-05-14T16:31:35;99893.59;;;18.90;49.29
46583;BME280;32309;48.858;8.252;2023-05-14T16:33:36;99901.97;;;18.93;49.34
46583;BME280;32309;48.858;8.252;2023-05-14T16:35:36;99896.13;;;19.00;49.53
46583;BME280;32309;48.858;8.252;2023-05-14T16:37:36;99893.94;;;18.95;50.08
46583;BME280;32309;48.858;8.252;2023-05-14T16:39:36;99892.44;;;18.92;50.38
46583;BME280;32309;48.858;8.252;2023-05-14T16:41:37;99892.00;;;18.97;50.38
46583;BME280;32309;48.858;8.252;2023-05-14T16:43:37;99889.75;;;19.02;49.94
46583;BME280;32309;48.858;8.252;2023-05-14T16:45:38;99895.72;;;19.12;48.46
46583;BME280;32309;48.858;8.252;2023-05-14T16:47:39;99897.69;;;19.10;48.51
46583;BME280;32309;48.858;8.252;2023-05-14T16:49:40;99901.28;;;19.09;49.20
46583;BME280;32309;48.858;8.252;2023-05-14T16:51:41;99899.00;;;19.15;49.72
46583;BME280;32309;48.858;8.252;2023-05-14T16:53:42;99897.72;;;19.19;49.95
46583;BME280;32309;48.858;8.252;2023-05-14T16:55:43;99900.44;;;19.27;49.94
46583;BME280;32309;48.858;8.252;2023-05-14T16:57:43;99900.47;;;19.35;49.39
46583;BME280;32309;48.858;8.252;2023-05-14T16:59:43;99903.47;;;19.40;49.12
46583;BME280;32309;48.858;8.252;2023-05-14T17:01:44;99898.66;;;19.36;49.19
46583;BME280;32309;48.858;8.252;2023-05-14T17:03:47;99898.66;;;19.36;48.86
46583;BME280;32309;48.858;8.252;2023-05-14T17:05:47;99901.56;;;19.24;49.35
46583;BME280;32309;48.858;8.252;2023-05-14T17:07:47;99900.63;;;19.07;50.20
46583;BME280;32309;48.858;8.252;2023-05-14T17:09:47;99905.81;;;18.99;50.74
46583;BME280;32309;48.858;8.252;2023-05-14T17:11:48;99903.53;;;18.86;49.60
46583;BME280;32309;48.858;8.252;2023-05-14T17:13:51;99901.50;;;18.80;50.07
46583;BME280;32309;48.858;8.252;2023-05-14T17:15:51;99903.75;;;18.75;50.36
46583;BME280;32309;48.858;8.252;2023-05-14T17:17:51;99905.41;;;18.76;50.33
46583;BME280;32309;48.858;8.252;2023-05-14T17:19:52;99910.81;;;18.74;49.98
46583;BME280;32309;48.858;8.252;2023-05-14T17:21:52;99903.84;;;18.65;50.01
46583;BME280;32309;48.858;8.252;2023-05-14T17:23:52;99905.13;;;18.61;50.43
46583;BME280;32309;48.858;8.252;2023-05-14T17:25:53;99895.59;;;18.60;50.14
46583;BME280;32309;48.858;8.252;2023-05-14T17:27:55;99900.69;;;18.61;49.59
46583;BME280;32309;48.858;8.252;2023-05-14T17:29:55;99898.22;;;18.60;49.63
46583;BME280;32309;48.858;8.252;2023-05-14T17:31:56;99899.34;;;18.57;49.48
46583;BME280;32309;48.858;8.252;2023-05-14T17:33:56;99904.94;;;18.44;50.17
46583;BME280;32309;48.858;8.252;2023-05-14T17:35:57;99907.78;;;18.33;50.61
46583;BME280;32309;48.858;8.252;2023-05-14T17:37:57;99914.03;;;18.22;51.23
46583;BME280;32309;48.858;8.252;2023-05-14T17:39:58;99908.00;;;18.22;51.28
46583;BME280;32309;48.858;8.252;2023-05-14T17:41:58;99915.84;;;18.22;51.43
46583;BME280;32309;48.858;8.252;2023-05-14T17:43:59;99919.06;;;18.16;51.75
46583;BME280;32309;48.858;8.252;2023-05-14T17:45:59;99911.19;;;18.16;51.57
46583;BME280;32309;48.858;8.252;2023-05-14T17:47:59;99922.41;;;18.08;51.96
46583;BME280;32309;48.858;8.252;2023-05-14T17:49:59;99920.38;;;18.02;52.48
46583;BME280;32309;48.858;8.252;2023-05-14T17:52:00;99917.06;;;18.00;52.98
46583;BME280;32309;48.858;8.252;2023-05-14T17:54:00;99914.59;;;17.98;52.91
46583;BME280;32309;48.858;8.252;2023-05-14T17:56:01;99921.34;;;18.01;52.92
46583;BME280;32309;48.858;8.252;2023-05-14T17:58:01;99925.63;;;18.02;52.72
46583;BME280;32309;48.858;8.252;2023-05-14T18:00:01;99920.94;;;17.95;53.03
46583;BME280;32309;48.858;8.252;2023-05-14T18:02:03;99916.13;;;17.91;53.30
46583;BME280;32309;48.858;8.252;2023-05-14T18:04:10;99911.88;;;17.80;53.60
46583;BME280;32309;48.858;8.252;2023-05-14T18:06:10;99922.09;;;17.73;53.98
46583;BME280;32309;48.858;8.252;2023-05-14T18:08:10;99921.03;;;17.66;54.23
46583;BME280;32309;48.858;8.252;2023-05-14T18:10:11;99926.53;;;17.63;54.54
46583;BME280;32309;48.858;8.252;2023-05-14T18:12:11;99931.25;;;17.59;54.90
46583;BME280;32309;48.858;8.252;2023-05-14T18:14:11;99927.41;;;17.54;55.32
46583;BME280;32309;48.858;8.252;2023-05-14T18:16:11;99933.88;;;17.50;55.58
46583;BME280;32309;48.858;8.252;2023-05-14T18:18:12;99932.66;;;17.44;56.13
46583;BME280;32309;48.858;8.252;2023-05-14T18:20:15;99932.97;;;17.41;55.37
46583;BME280;32309;48.858;8.252;2023-05-14T18:22:16;99930.75;;;17.36;55.99
46583;BME280;32309;48.858;8.252;2023-05-14T18:24:16;99934.63;;;17.32;56.06
46583;BME280;32309;48.858;8.252;2023-05-14T18:26:16;99937.38;;;17.30;55.88
46583;BME280;32309;48.858;8.252;2023-05-14T18:28:17;99936.03;;;17.26;56.29
46583;BME280;32309;48.858;8.252;2023-05-14T18:30:17;99940.84;;;17.21;56.39
46583;BME280;32309;48.858;8.252;2023-05-14T18:32:18;99934.75;;;17.21;56.13
46583;BME280;32309;48.858;8.252;2023-05-14T18:34:19;99951.47;;;17.20;56.05
46583;BME280;32309;48.858;8.252;2023-05-14T18:36:20;99941.25;;;17.17;55.84
46583;BME280;32309;48.858;8.252;2023-05-14T18:38:20;99956.97;;;17.07;56.13
46583;BME280;32309;48.858;8.252;2023-05-14T18:40:20;99952.41;;;16.99;56.74
46583;BME280;32309;48.858;8.252;2023-05-14T18:42:21;99959.03;;;16.93;56.64
46583;BME280;32309;48.858;8.252;2023-05-14T18:44:21;99958.47;;;16.90;57.09
46583;BME280;32309;48.858;8.252;2023-05-14T18:46:22;99948.38;;;16.85;57.82
46583;BME280;32309;48.858;8.252;2023-05-14T18:48:22;99952.94;;;16.83;58.38
46583;BME280;32309;48.858;8.252;2023-05-14T18:50:23;99957.63;;;16.79;58.65
46583;BME280;32309;48.858;8.252;2023-05-14T18:52:23;99965.75;;;16.76;59.25
46583;BME280;32309;48.858;8.252;2023-05-14T18:54:25;99966.84;;;16.74;59.20
46583;BME280;32309;48.858;8.252;2023-05-14T18:56:25;99963.38;;;16.73;59.07
46583;BME280;32309;48.858;8.252;2023-05-14T18:58:25;99963.81;;;16.69;59.26
46583;BME280;32309;48.858;8.252;2023-05-14T19:00:25;99982.41;;;16.66;59.68
46583;BME280;32309;48.858;8.252;2023-05-14T19:02:26;99978.25;;;16.63;59.78
46583;BME280;32309;48.858;8.252;2023-05-14T19:04:27;99968.88;;;16.60;59.87
46583;BME280;32309;48.858;8.252;2023-05-14T19:06:27;99975.06;;;16.59;60.18
46583;BME280;32309;48.858;8.252;2023-05-14T19:08:27;99970.81;;;16.58;60.21
46583;BME280;32309;48.858;8.252;2023-05-14T19:10:28;99972.03;;;16.54;59.66
46583;BME280;32309;48.858;8.252;2023-05-14T19:12:28;99970.94;;;16.47;60.69
46583;BME280;32309;48.858;8.252;2023-05-14T19:14:29;99969.66;;;16.41;62.70
46583;BME280;32309;48.858;8.252;2023-05-14T19:16:30;99966.22;;;16.41;62.71
46583;BME280;32309;48.858;8.252;2023-05-14T19:18:30;99965.38;;;16.40;61.26
46583;BME280;32309;48.858;8.252;2023-05-14T19:20:30;99968.00;;;16.40;60.26
46583;BME280;32309;48.858;8.252;2023-05-14T19:22:31;99974.22;;;16.39;61.35
46583;BME280;32309;48.858;8.252;2023-05-14T19:24:31;99974.88;;;16.41;61.93
46583;BME280;32309;48.858;8.252;2023-05-14T19:26:31;99975.72;;;16.42;61.88
46583;BME280;32309;48.858;8.252;2023-05-14T19:28:32;99980.53;;;16.37;62.75
46583;BME280;32309;48.858;8.252;2023-05-14T19:30:32;99974.88;;;16.32;63.11
46583;BME280;32309;48.858;8.252;2023-05-14T19:32:33;99981.75;;;16.33;62.91
46583;BME280;32309;48.858;8.252;2023-05-14T19:34:34;99981.75;;;16.33;61.77
46583;BME280;32309;48.858;8.252;2023-05-14T19:36:35;99983.09;;;16.27;63.35
46583;BME280;32309;48.858;8.252;2023-05-14T19:38:35;99981.47;;;16.26;63.52
46583;BME280;32309;48.858;8.252;2023-05-14T19:40:36;99982.16;;;16.28;63.61
46583;BME280;32309;48.858;8.252;2023-05-14T19:42:36;99980.34;;;16.28;63.89
46583;BME280;32309;48.858;8.252;2023-05-14T19:44:36;99980.25;;;16.30;63.62
46583;BME280;32309;48.858;8.252;2023-05-14T19:46:37;99982.97;;;16.28;63.46
46583;BME280;32309;48.858;8.252;2023-05-14T19:48:37;99989.84;;;16.29;63.22
46583;BME280;32309;48.858;8.252;2023-05-14T19:50:37;99992.47;;;16.29;62.94
46583;BME280;32309;48.858;8.252;2023-05-14T19:52:38;99994.94;;;16.31;61.45
46583;BME280;32309;48.858;8.252;2023-05-14T19:54:38;99995.50;;;16.25;62.40
46583;BME280;32309;48.858;8.252;2023-05-14T19:56:38;99999.56;;;16.18;63.31
46583;BME280;32309;48.858;8.252;2023-05-14T19:58:39;100007.56;;;16.16;63.75
46583;BME280;32309;48.858;8.252;2023-05-14T20:00:39;100012.41;;;16.21;62.70
46583;BME280;32309;48.858;8.252;2023-05-14T20:02:39;100002.63;;;16.23;63.45
46583;BME280;32309;48.858;8.252;2023-05-14T20:04:40;99999.78;;;16.26;64.08
46583;BME280;32309;48.858;8.252;2023-05-14T20:06:42;100002.78;;;16.31;64.16
46583;BME280;32309;48.858;8.252;2023-05-14T20:08:44;100009.44;;;16.35;63.79
46583;BME280;32309;48.858;8.252;2023-05-14T20:10:45;100004.22;;;16.35;64.56
46583;BME280;32309;48.858;8.252;2023-05-14T20:12:46;100003.22;;;16.36;64.79
46583;BME280;32309;48.858;8.252;2023-05-14T20:14:47;100003.63;;;16.32;65.04
46583;BME280;32309;48.858;8.252;2023-05-14T20:16:47;100004.59;;;16.30;65.35
46583;BME280;32309;48.858;8.252;2023-05-14T20:18:48;100001.84;;;16.32;65.65
46583;BME280;32309;48.858;8.252;2023-05-14T20:20:55;99996.88;;;16.29;65.16
46583;BME280;32309;48.858;8.252;2023-05-14T20:22:58;99996.59;;;16.22;66.51
46583;BME280;32309;48.858;8.252;2023-05-14T20:24:58;99994.34;;;16.18;66.59
46583;BME280;32309;48.858;8.252;2023-05-14T20:26:59;99998.03;;;16.15;66.35
46583;BME280;32309;48.858;8.252;2023-05-14T20:28:59;99997.63;;;16.10;66.79